SBOSBO CHQ / LGSA
Speedbird OnlineSpeedbird Online CHQ / LGSA

Chania International Airport
06:43 18°C

Location Chania, Greece
Latitude: 35.531700134277344
Longitude: 24.149700164794922
Local Time 06:43 on 24 Apr 2024
UTC +3 hours (Europe/Athens)
Currency £1 equals EUR 1.16
METAR LGSA 240320Z 26017G27KT 8000 FEW020 BKN080 18/15 Q1005
TAF TAF LGSA 232300Z 2400/2424 27015KT 4000 DU SCT020 BKN080 PROB40 TEMPO 2400/2404 2000 DU TEMPO 2400/2408 27015G25KT
Weather As Of 24 Apr 2024 06:43
Description Broken clouds
Wind 32 km/h from West (260°)
Cloud Cover 75%
Precipitation Rain: none, Snow: none
Sunrise 06:39
Sunset 20:03
NOTAM 2 active NOTAM
Rotations During the last 90 days there were
3 flights from LHR
4 flights to LHR
Web Wikipedia
Codes IATA: CHQ
ICAO: LGSA
Altitude 149 Meter / 490 Feet
Distance 2,606 KM / 1,619 Miles
from London.
Runways
RunwayLength (m)Surface
113347Asphalt
293347Asphalt
Radio
TypeDescriptionFrequency
A/GCHANIA RDO563.7
APPAPP118.125
GNDGND121.7
MISCRANGER BASE25.24
OPSBASE OPS35.94
PMSVPMSV METRO35.94
POSTBULL PEN27.895
TWRTWR121.1
Live ATC



Support Speedbird Online

© 2017-2024 Speedbird Online